sensor_id;sensor_type;location;lat;lon;timestamp;P1;durP1;ratioP1;P2;durP2;ratioP2
53654;SDS011;39558;52.028;8.536;2024-01-30T00:01:29;6.32;;;2.70;;
53654;SDS011;39558;52.028;8.536;2024-01-30T00:03:55;6.82;;;3.00;;
53654;SDS011;39558;52.028;8.536;2024-01-30T00:06:21;5.88;;;2.90;;
53654;SDS011;39558;52.028;8.536;2024-01-30T00:08:48;5.60;;;2.90;;
53654;SDS011;39558;52.028;8.536;2024-01-30T00:11:14;4.95;;;2.50;;
53654;SDS011;39558;52.028;8.536;2024-01-30T00:13:40;6.85;;;3.10;;
53654;SDS011;39558;52.028;8.536;2024-01-30T00:16:07;5.18;;;2.65;;
53654;SDS011;39558;52.028;8.536;2024-01-30T00:18:34;5.68;;;2.47;;
53654;SDS011;39558;52.028;8.536;2024-01-30T00:20:59;5.28;;;2.53;;
53654;SDS011;39558;52.028;8.536;2024-01-30T00:23:25;6.07;;;2.78;;
53654;SDS011;39558;52.028;8.536;2024-01-30T00:25:51;5.97;;;2.63;;
53654;SDS011;39558;52.028;8.536;2024-01-30T00:28:17;5.82;;;2.90;;
53654;SDS011;39558;52.028;8.536;2024-01-30T00:30:43;6.18;;;2.97;;
53654;SDS011;39558;52.028;8.536;2024-01-30T00:33:09;5.82;;;3.28;;
53654;SDS011;39558;52.028;8.536;2024-01-30T00:35:35;7.07;;;2.70;;
53654;SDS011;39558;52.028;8.536;2024-01-30T00:38:01;5.35;;;2.80;;
53654;SDS011;39558;52.028;8.536;2024-01-30T00:40:27;5.93;;;2.83;;
53654;SDS011;39558;52.028;8.536;2024-01-30T00:42:53;5.05;;;2.38;;
53654;SDS011;39558;52.028;8.536;2024-01-30T00:45:19;4.68;;;2.60;;
53654;SDS011;39558;52.028;8.536;2024-01-30T00:47:45;5.90;;;2.72;;
53654;SDS011;39558;52.028;8.536;2024-01-30T00:50:11;6.28;;;2.90;;
53654;SDS011;39558;52.028;8.536;2024-01-30T00:52:37;5.65;;;2.67;;
53654;SDS011;39558;52.028;8.536;2024-01-30T00:55:04;5.00;;;2.85;;
53654;SDS011;39558;52.028;8.536;2024-01-30T00:57:30;5.43;;;3.00;;
53654;SDS011;39558;52.028;8.536;2024-01-30T00:59:56;7.60;;;3.15;;
53654;SDS011;39558;52.028;8.536;2024-01-30T01:02:22;4.65;;;2.30;;
53654;SDS011;39558;52.028;8.536;2024-01-30T01:04:48;5.43;;;2.80;;
53654;SDS011;39558;52.028;8.536;2024-01-30T01:07:15;4.55;;;2.50;;
53654;SDS011;39558;52.028;8.536;2024-01-30T01:09:40;5.43;;;3.03;;
53654;SDS011;39558;52.028;8.536;2024-01-30T01:12:06;6.18;;;2.47;;
53654;SDS011;39558;52.028;8.536;2024-01-30T01:14:32;4.65;;;2.63;;
53654;SDS011;39558;52.028;8.536;2024-01-30T01:16:58;4.60;;;2.60;;
53654;SDS011;39558;52.028;8.536;2024-01-30T01:19:24;4.18;;;2.50;;
53654;SDS011;39558;52.028;8.536;2024-01-30T01:21:50;6.47;;;2.50;;
53654;SDS011;39558;52.028;8.536;2024-01-30T01:24:16;4.43;;;2.60;;
53654;SDS011;39558;52.028;8.536;2024-01-30T01:26:41;4.20;;;2.60;;
53654;SDS011;39558;52.028;8.536;2024-01-30T01:29:07;5.05;;;2.17;;
53654;SDS011;39558;52.028;8.536;2024-01-30T01:31:37;5.10;;;2.88;;
53654;SDS011;39558;52.028;8.536;2024-01-30T01:34:09;5.43;;;3.10;;
53654;SDS011;39558;52.028;8.536;2024-01-30T01:36:35;5.57;;;2.80;;
53654;SDS011;39558;52.028;8.536;2024-01-30T01:39:01;4.45;;;2.47;;
53654;SDS011;39558;52.028;8.536;2024-01-30T01:41:29;4.97;;;2.50;;
53654;SDS011;39558;52.028;8.536;2024-01-30T01:43:56;6.18;;;2.75;;
53654;SDS011;39558;52.028;8.536;2024-01-30T01:46:22;4.50;;;2.38;;
53654;SDS011;39558;52.028;8.536;2024-01-30T01:48:48;6.25;;;3.38;;
53654;SDS011;39558;52.028;8.536;2024-01-30T01:51:14;5.38;;;2.53;;
53654;SDS011;39558;52.028;8.536;2024-01-30T01:53:41;4.85;;;2.78;;
53654;SDS011;39558;52.028;8.536;2024-01-30T01:56:07;5.70;;;3.15;;
53654;SDS011;39558;52.028;8.536;2024-01-30T01:58:33;4.63;;;2.22;;
53654;SDS011;39558;52.028;8.536;2024-01-30T02:00:59;5.53;;;2.75;;
53654;SDS011;39558;52.028;8.536;2024-01-30T02:03:25;5.90;;;2.80;;
53654;SDS011;39558;52.028;8.536;2024-01-30T02:05:50;4.95;;;2.50;;
53654;SDS011;39558;52.028;8.536;2024-01-30T02:08:17;5.40;;;3.00;;
53654;SDS011;39558;52.028;8.536;2024-01-30T02:10:43;4.18;;;2.25;;
53654;SDS011;39558;52.028;8.536;2024-01-30T02:13:09;5.07;;;2.63;;
53654;SDS011;39558;52.028;8.536;2024-01-30T02:15:34;4.30;;;2.30;;
53654;SDS011;39558;52.028;8.536;2024-01-30T02:18:00;5.80;;;2.35;;
53654;SDS011;39558;52.028;8.536;2024-01-30T02:20:26;5.07;;;2.22;;
53654;SDS011;39558;52.028;8.536;2024-01-30T02:22:55;4.82;;;2.50;;
53654;SDS011;39558;52.028;8.536;2024-01-30T02:25:39;6.20;;;3.05;;
53654;SDS011;39558;52.028;8.536;2024-01-30T02:28:12;4.40;;;2.03;;
53654;SDS011;39558;52.028;8.536;2024-01-30T02:30:38;4.85;;;2.10;;
53654;SDS011;39558;52.028;8.536;2024-01-30T02:33:04;5.25;;;2.72;;
53654;SDS011;39558;52.028;8.536;2024-01-30T02:35:31;6.07;;;2.55;;
53654;SDS011;39558;52.028;8.536;2024-01-30T02:37:56;4.65;;;2.53;;
53654;SDS011;39558;52.028;8.536;2024-01-30T02:40:22;4.80;;;2.50;;
53654;SDS011;39558;52.028;8.536;2024-01-30T02:42:48;4.97;;;2.85;;
53654;SDS011;39558;52.028;8.536;2024-01-30T02:45:14;4.97;;;2.70;;
53654;SDS011;39558;52.028;8.536;2024-01-30T02:47:40;5.95;;;2.63;;
53654;SDS011;39558;52.028;8.536;2024-01-30T02:50:06;4.65;;;2.67;;
53654;SDS011;39558;52.028;8.536;2024-01-30T02:52:32;4.07;;;2.20;;
53654;SDS011;39558;52.028;8.536;2024-01-30T02:54:58;5.00;;;2.63;;
53654;SDS011;39558;52.028;8.536;2024-01-30T02:57:24;5.47;;;2.60;;
53654;SDS011;39558;52.028;8.536;2024-01-30T02:59:50;5.32;;;2.78;;
53654;SDS011;39558;52.028;8.536;2024-01-30T03:02:16;5.35;;;2.88;;
53654;SDS011;39558;52.028;8.536;2024-01-30T03:04:42;4.32;;;2.15;;
53654;SDS011;39558;52.028;8.536;2024-01-30T03:07:08;4.53;;;2.35;;
53654;SDS011;39558;52.028;8.536;2024-01-30T03:09:34;5.13;;;2.97;;
53654;SDS011;39558;52.028;8.536;2024-01-30T03:12:00;5.57;;;2.20;;
53654;SDS011;39558;52.028;8.536;2024-01-30T03:14:26;4.35;;;2.50;;
53654;SDS011;39558;52.028;8.536;2024-01-30T03:16:52;4.45;;;2.30;;
53654;SDS011;39558;52.028;8.536;2024-01-30T03:19:18;7.18;;;3.22;;
53654;SDS011;39558;52.028;8.536;2024-01-30T03:21:43;5.78;;;2.78;;
53654;SDS011;39558;52.028;8.536;2024-01-30T03:24:09;5.60;;;3.15;;
53654;SDS011;39558;52.028;8.536;2024-01-30T03:26:35;7.43;;;2.50;;
53654;SDS011;39558;52.028;8.536;2024-01-30T03:29:01;4.55;;;2.80;;
53654;SDS011;39558;52.028;8.536;2024-01-30T03:31:27;5.13;;;2.90;;
53654;SDS011;39558;52.028;8.536;2024-01-30T03:33:53;4.72;;;2.30;;
53654;SDS011;39558;52.028;8.536;2024-01-30T03:36:19;6.05;;;2.85;;
53654;SDS011;39558;52.028;8.536;2024-01-30T03:38:45;5.20;;;2.75;;
53654;SDS011;39558;52.028;8.536;2024-01-30T03:41:11;4.32;;;2.50;;
53654;SDS011;39558;52.028;8.536;2024-01-30T03:43:37;3.90;;;2.40;;
53654;SDS011;39558;52.028;8.536;2024-01-30T03:46:03;4.90;;;2.50;;
53654;SDS011;39558;52.028;8.536;2024-01-30T03:48:29;5.13;;;2.33;;
53654;SDS011;39558;52.028;8.536;2024-01-30T03:50:55;5.10;;;2.42;;
53654;SDS011;39558;52.028;8.536;2024-01-30T03:53:21;5.70;;;2.55;;
53654;SDS011;39558;52.028;8.536;2024-01-30T03:55:47;4.75;;;2.05;;
53654;SDS011;39558;52.028;8.536;2024-01-30T03:58:13;4.75;;;2.58;;
53654;SDS011;39558;52.028;8.536;2024-01-30T04:00:39;4.75;;;2.53;;
53654;SDS011;39558;52.028;8.536;2024-01-30T04:03:06;5.22;;;2.50;;
53654;SDS011;39558;52.028;8.536;2024-01-30T04:05:31;5.50;;;2.70;;
53654;SDS011;39558;52.028;8.536;2024-01-30T04:07:57;4.40;;;2.47;;
53654;SDS011;39558;52.028;8.536;2024-01-30T04:10:23;4.57;;;2.50;;
53654;SDS011;39558;52.028;8.536;2024-01-30T04:12:52;5.13;;;2.47;;
53654;SDS011;39558;52.028;8.536;2024-01-30T04:15:19;4.45;;;2.28;;
53654;SDS011;39558;52.028;8.536;2024-01-30T04:17:44;4.82;;;2.65;;
53654;SDS011;39558;52.028;8.536;2024-01-30T04:20:14;6.13;;;2.45;;
53654;SDS011;39558;52.028;8.536;2024-01-30T04:22:44;4.57;;;2.47;;
53654;SDS011;39558;52.028;8.536;2024-01-30T04:25:10;4.13;;;2.03;;
53654;SDS011;39558;52.028;8.536;2024-01-30T04:27:36;4.60;;;2.72;;
53654;SDS011;39558;52.028;8.536;2024-01-30T04:30:02;3.83;;;1.92;;
53654;SDS011;39558;52.028;8.536;2024-01-30T04:32:28;4.45;;;2.25;;
53654;SDS011;39558;52.028;8.536;2024-01-30T04:34:54;3.58;;;2.15;;
53654;SDS011;39558;52.028;8.536;2024-01-30T04:37:20;5.22;;;2.50;;
53654;SDS011;39558;52.028;8.536;2024-01-30T04:39:46;7.05;;;2.60;;
53654;SDS011;39558;52.028;8.536;2024-01-30T04:42:12;4.72;;;2.47;;
53654;SDS011;39558;52.028;8.536;2024-01-30T04:44:38;6.22;;;2.08;;
53654;SDS011;39558;52.028;8.536;2024-01-30T04:47:04;4.85;;;2.60;;
53654;SDS011;39558;52.028;8.536;2024-01-30T04:49:31;5.28;;;2.45;;
53654;SDS011;39558;52.028;8.536;2024-01-30T04:51:57;3.30;;;1.90;;
53654;SDS011;39558;52.028;8.536;2024-01-30T04:54:23;4.15;;;2.17;;
53654;SDS011;39558;52.028;8.536;2024-01-30T04:56:49;4.95;;;2.28;;
53654;SDS011;39558;52.028;8.536;2024-01-30T04:59:15;5.97;;;2.90;;
53654;SDS011;39558;52.028;8.536;2024-01-30T05:01:41;5.40;;;3.00;;
53654;SDS011;39558;52.028;8.536;2024-01-30T05:04:07;3.90;;;2.00;;
53654;SDS011;39558;52.028;8.536;2024-01-30T05:06:33;4.22;;;2.40;;
53654;SDS011;39558;52.028;8.536;2024-01-30T05:08:59;5.05;;;2.47;;
53654;SDS011;39558;52.028;8.536;2024-01-30T05:11:25;4.65;;;2.50;;
53654;SDS011;39558;52.028;8.536;2024-01-30T05:13:51;4.13;;;2.53;;
53654;SDS011;39558;52.028;8.536;2024-01-30T05:16:17;5.20;;;2.55;;
53654;SDS011;39558;52.028;8.536;2024-01-30T05:18:43;4.57;;;2.45;;
53654;SDS011;39558;52.028;8.536;2024-01-30T05:21:10;4.53;;;2.20;;
53654;SDS011;39558;52.028;8.536;2024-01-30T05:23:36;4.97;;;2.80;;
53654;SDS011;39558;52.028;8.536;2024-01-30T05:26:02;5.00;;;2.90;;
53654;SDS011;39558;52.028;8.536;2024-01-30T05:28:29;5.05;;;2.72;;
53654;SDS011;39558;52.028;8.536;2024-01-30T05:30:55;5.03;;;2.65;;
53654;SDS011;39558;52.028;8.536;2024-01-30T05:33:21;3.65;;;2.15;;
53654;SDS011;39558;52.028;8.536;2024-01-30T05:35:47;6.13;;;2.78;;
53654;SDS011;39558;52.028;8.536;2024-01-30T05:38:13;5.68;;;2.35;;
53654;SDS011;39558;52.028;8.536;2024-01-30T05:40:39;4.15;;;2.00;;
53654;SDS011;39558;52.028;8.536;2024-01-30T05:43:05;4.20;;;2.30;;
53654;SDS011;39558;52.028;8.536;2024-01-30T05:45:32;4.38;;;2.22;;
53654;SDS011;39558;52.028;8.536;2024-01-30T05:47:59;3.92;;;2.42;;
53654;SDS011;39558;52.028;8.536;2024-01-30T05:50:25;5.05;;;2.35;;
53654;SDS011;39558;52.028;8.536;2024-01-30T05:52:51;4.72;;;2.40;;
53654;SDS011;39558;52.028;8.536;2024-01-30T05:55:17;4.53;;;2.42;;
53654;SDS011;39558;52.028;8.536;2024-01-30T05:57:43;5.05;;;2.38;;
53654;SDS011;39558;52.028;8.536;2024-01-30T06:00:09;4.00;;;2.22;;
53654;SDS011;39558;52.028;8.536;2024-01-30T06:02:35;6.50;;;3.38;;
53654;SDS011;39558;52.028;8.536;2024-01-30T06:05:02;7.13;;;3.40;;
53654;SDS011;39558;52.028;8.536;2024-01-30T06:07:27;4.68;;;2.47;;
53654;SDS011;39558;52.028;8.536;2024-01-30T06:09:53;6.55;;;2.50;;
53654;SDS011;39558;52.028;8.536;2024-01-30T06:12:19;4.28;;;2.17;;
53654;SDS011;39558;52.028;8.536;2024-01-30T06:14:45;4.78;;;2.30;;
53654;SDS011;39558;52.028;8.536;2024-01-30T06:17:11;6.28;;;2.75;;
53654;SDS011;39558;52.028;8.536;2024-01-30T06:19:38;5.72;;;2.92;;
53654;SDS011;39558;52.028;8.536;2024-01-30T06:22:04;4.68;;;2.42;;
53654;SDS011;39558;52.028;8.536;2024-01-30T06:24:30;5.43;;;2.70;;
53654;SDS011;39558;52.028;8.536;2024-01-30T06:26:56;5.88;;;2.80;;
53654;SDS011;39558;52.028;8.536;2024-01-30T06:29:22;4.15;;;2.20;;
53654;SDS011;39558;52.028;8.536;2024-01-30T06:31:49;5.13;;;2.50;;
53654;SDS011;39558;52.028;8.536;2024-01-30T06:34:15;5.60;;;2.35;;
53654;SDS011;39558;52.028;8.536;2024-01-30T06:36:41;5.57;;;2.58;;
53654;SDS011;39558;52.028;8.536;2024-01-30T06:39:07;4.70;;;2.65;;
53654;SDS011;39558;52.028;8.536;2024-01-30T06:41:33;4.63;;;2.47;;
53654;SDS011;39558;52.028;8.536;2024-01-30T06:44:01;7.53;;;3.08;;
53654;SDS011;39558;52.028;8.536;2024-01-30T06:46:28;5.35;;;2.92;;
53654;SDS011;39558;52.028;8.536;2024-01-30T06:48:54;5.38;;;2.53;;
53654;SDS011;39558;52.028;8.536;2024-01-30T06:51:19;5.68;;;2.92;;
53654;SDS011;39558;52.028;8.536;2024-01-30T06:53:45;4.53;;;2.30;;
53654;SDS011;39558;52.028;8.536;2024-01-30T06:56:11;5.70;;;3.05;;
53654;SDS011;39558;52.028;8.536;2024-01-30T06:58:37;5.32;;;2.55;;
53654;SDS011;39558;52.028;8.536;2024-01-30T07:01:03;4.25;;;2.03;;
53654;SDS011;39558;52.028;8.536;2024-01-30T07:03:29;4.20;;;2.55;;
53654;SDS011;39558;52.028;8.536;2024-01-30T07:05:55;6.75;;;2.88;;
53654;SDS011;39558;52.028;8.536;2024-01-30T07:08:21;5.30;;;2.67;;
53654;SDS011;39558;52.028;8.536;2024-01-30T07:10:47;6.38;;;2.20;;
53654;SDS011;39558;52.028;8.536;2024-01-30T07:13:13;4.53;;;2.60;;
53654;SDS011;39558;52.028;8.536;2024-01-30T07:15:41;6.10;;;2.78;;
53654;SDS011;39558;52.028;8.536;2024-01-30T07:18:07;5.43;;;2.33;;
53654;SDS011;39558;52.028;8.536;2024-01-30T07:20:35;4.03;;;2.38;;
53654;SDS011;39558;52.028;8.536;2024-01-30T07:23:01;4.38;;;2.35;;
53654;SDS011;39558;52.028;8.536;2024-01-30T07:25:28;5.15;;;3.05;;
53654;SDS011;39558;52.028;8.536;2024-01-30T07:27:54;4.63;;;2.42;;
53654;SDS011;39558;52.028;8.536;2024-01-30T07:30:20;4.88;;;2.50;;
53654;SDS011;39558;52.028;8.536;2024-01-30T07:32:46;5.55;;;2.45;;
53654;SDS011;39558;52.028;8.536;2024-01-30T07:35:13;6.32;;;2.75;;
53654;SDS011;39558;52.028;8.536;2024-01-30T07:37:39;5.05;;;2.50;;
53654;SDS011;39558;52.028;8.536;2024-01-30T07:40:05;5.68;;;2.65;;
53654;SDS011;39558;52.028;8.536;2024-01-30T07:42:31;5.30;;;2.67;;
53654;SDS011;39558;52.028;8.536;2024-01-30T07:44:57;5.13;;;2.58;;
53654;SDS011;39558;52.028;8.536;2024-01-30T07:47:23;5.20;;;2.25;;
53654;SDS011;39558;52.028;8.536;2024-01-30T07:49:49;4.78;;;2.53;;
53654;SDS011;39558;52.028;8.536;2024-01-30T07:52:16;6.50;;;2.70;;
53654;SDS011;39558;52.028;8.536;2024-01-30T07:54:42;4.25;;;2.10;;
53654;SDS011;39558;52.028;8.536;2024-01-30T07:57:08;3.80;;;2.30;;
53654;SDS011;39558;52.028;8.536;2024-01-30T07:59:34;4.90;;;2.22;;
53654;SDS011;39558;52.028;8.536;2024-01-30T08:02:00;3.40;;;1.77;;
53654;SDS011;39558;52.028;8.536;2024-01-30T08:04:26;5.13;;;2.22;;
53654;SDS011;39558;52.028;8.536;2024-01-30T08:06:52;4.18;;;2.35;;
53654;SDS011;39558;52.028;8.536;2024-01-30T08:09:18;4.00;;;2.33;;
53654;SDS011;39558;52.028;8.536;2024-01-30T08:11:44;4.22;;;1.98;;
53654;SDS011;39558;52.028;8.536;2024-01-30T08:14:10;4.38;;;2.35;;
53654;SDS011;39558;52.028;8.536;2024-01-30T08:16:36;4.78;;;2.05;;
53654;SDS011;39558;52.028;8.536;2024-01-30T08:19:02;5.85;;;2.60;;
53654;SDS011;39558;52.028;8.536;2024-01-30T08:21:28;4.93;;;2.20;;
53654;SDS011;39558;52.028;8.536;2024-01-30T08:23:54;4.47;;;2.03;;
53654;SDS011;39558;52.028;8.536;2024-01-30T08:26:20;4.55;;;2.30;;
53654;SDS011;39558;52.028;8.536;2024-01-30T08:28:46;4.47;;;2.20;;
53654;SDS011;39558;52.028;8.536;2024-01-30T08:31:12;4.93;;;2.20;;
53654;SDS011;39558;52.028;8.536;2024-01-30T08:33:38;4.00;;;2.10;;
53654;SDS011;39558;52.028;8.536;2024-01-30T08:36:04;4.30;;;2.47;;
53654;SDS011;39558;52.028;8.536;2024-01-30T08:38:29;4.38;;;2.25;;
53654;SDS011;39558;52.028;8.536;2024-01-30T08:40:56;7.45;;;2.05;;
53654;SDS011;39558;52.028;8.536;2024-01-30T08:43:21;4.38;;;2.20;;
53654;SDS011;39558;52.028;8.536;2024-01-30T08:45:47;3.78;;;1.98;;
53654;SDS011;39558;52.028;8.536;2024-01-30T08:48:13;3.95;;;1.80;;
53654;SDS011;39558;52.028;8.536;2024-01-30T08:50:39;6.35;;;2.40;;
53654;SDS011;39558;52.028;8.536;2024-01-30T08:53:05;4.88;;;2.13;;
53654;SDS011;39558;52.028;8.536;2024-01-30T08:55:31;5.30;;;2.30;;
53654;SDS011;39558;52.028;8.536;2024-01-30T08:57:57;4.32;;;2.25;;
53654;SDS011;39558;52.028;8.536;2024-01-30T09:00:24;4.78;;;2.53;;
53654;SDS011;39558;52.028;8.536;2024-01-30T09:02:50;4.50;;;2.28;;
53654;SDS011;39558;52.028;8.536;2024-01-30T09:05:16;5.07;;;2.20;;
53654;SDS011;39558;52.028;8.536;2024-01-30T09:07:42;4.40;;;2.30;;
53654;SDS011;39558;52.028;8.536;2024-01-30T09:10:08;4.88;;;2.10;;
53654;SDS011;39558;52.028;8.536;2024-01-30T09:12:34;3.65;;;1.90;;
53654;SDS011;39558;52.028;8.536;2024-01-30T09:15:00;6.10;;;1.88;;
53654;SDS011;39558;52.028;8.536;2024-01-30T09:17:26;6.20;;;2.17;;
53654;SDS011;39558;52.028;8.536;2024-01-30T09:19:52;4.78;;;2.17;;
53654;SDS011;39558;52.028;8.536;2024-01-30T09:22:17;5.93;;;2.17;;
53654;SDS011;39558;52.028;8.536;2024-01-30T09:24:43;4.45;;;2.20;;
53654;SDS011;39558;52.028;8.536;2024-01-30T09:27:09;3.22;;;1.80;;
53654;SDS011;39558;52.028;8.536;2024-01-30T09:29:35;4.07;;;2.10;;
53654;SDS011;39558;52.028;8.536;2024-01-30T09:32:01;4.43;;;2.22;;
53654;SDS011;39558;52.028;8.536;2024-01-30T09:34:27;5.05;;;2.28;;
53654;SDS011;39558;52.028;8.536;2024-01-30T09:36:53;4.72;;;2.22;;
53654;SDS011;39558;52.028;8.536;2024-01-30T09:39:19;4.45;;;2.08;;
53654;SDS011;39558;52.028;8.536;2024-01-30T09:41:48;5.78;;;2.10;;
53654;SDS011;39558;52.028;8.536;2024-01-30T09:44:15;3.77;;;1.77;;
53654;SDS011;39558;52.028;8.536;2024-01-30T09:46:42;3.72;;;2.05;;
53654;SDS011;39558;52.028;8.536;2024-01-30T09:49:08;4.97;;;2.10;;
53654;SDS011;39558;52.028;8.536;2024-01-30T09:51:35;4.78;;;2.13;;
53654;SDS011;39558;52.028;8.536;2024-01-30T09:54:01;3.97;;;2.08;;
53654;SDS011;39558;52.028;8.536;2024-01-30T09:56:28;4.78;;;2.17;;
53654;SDS011;39558;52.028;8.536;2024-01-30T09:58:54;3.90;;;1.60;;
53654;SDS011;39558;52.028;8.536;2024-01-30T10:01:20;3.80;;;1.98;;
53654;SDS011;39558;52.028;8.536;2024-01-30T10:03:46;2.88;;;1.65;;
53654;SDS011;39558;52.028;8.536;2024-01-30T10:06:12;5.57;;;2.03;;
53654;SDS011;39558;52.028;8.536;2024-01-30T10:08:38;6.05;;;1.90;;
53654;SDS011;39558;52.028;8.536;2024-01-30T10:11:04;4.30;;;1.75;;
53654;SDS011;39558;52.028;8.536;2024-01-30T10:13:31;4.43;;;2.30;;
53654;SDS011;39558;52.028;8.536;2024-01-30T10:15:57;4.45;;;2.22;;
53654;SDS011;39558;52.028;8.536;2024-01-30T10:18:24;7.28;;;2.10;;
53654;SDS011;39558;52.028;8.536;2024-01-30T10:20:50;5.75;;;2.15;;
53654;SDS011;39558;52.028;8.536;2024-01-30T10:23:17;4.18;;;1.90;;
53654;SDS011;39558;52.028;8.536;2024-01-30T10:25:44;4.32;;;2.33;;
53654;SDS011;39558;52.028;8.536;2024-01-30T10:28:11;2.80;;;1.50;;
53654;SDS011;39558;52.028;8.536;2024-01-30T10:30:37;3.42;;;1.95;;
53654;SDS011;39558;52.028;8.536;2024-01-30T10:33:03;4.63;;;2.00;;
53654;SDS011;39558;52.028;8.536;2024-01-30T10:35:29;4.38;;;2.20;;
53654;SDS011;39558;52.028;8.536;2024-01-30T10:37:56;3.47;;;2.05;;
53654;SDS011;39558;52.028;8.536;2024-01-30T10:40:28;3.20;;;1.85;;
53654;SDS011;39558;52.028;8.536;2024-01-30T10:42:55;6.10;;;2.40;;
53654;SDS011;39558;52.028;8.536;2024-01-30T10:45:24;4.90;;;2.10;;
53654;SDS011;39558;52.028;8.536;2024-01-30T10:47:53;6.25;;;1.88;;
53654;SDS011;39558;52.028;8.536;2024-01-30T10:50:19;3.75;;;1.77;;
53654;SDS011;39558;52.028;8.536;2024-01-30T10:52:45;3.97;;;2.08;;
53654;SDS011;39558;52.028;8.536;2024-01-30T10:55:12;4.03;;;1.75;;
53654;SDS011;39558;52.028;8.536;2024-01-30T10:57:38;4.10;;;2.08;;
53654;SDS011;39558;52.028;8.536;2024-01-30T11:00:05;4.22;;;1.90;;
53654;SDS011;39558;52.028;8.536;2024-01-30T11:02:35;4.82;;;2.08;;
53654;SDS011;39558;52.028;8.536;2024-01-30T11:05:01;4.25;;;1.75;;
53654;SDS011;39558;52.028;8.536;2024-01-30T11:07:30;3.00;;;1.48;;
53654;SDS011;39558;52.028;8.536;2024-01-30T11:10:00;4.63;;;2.08;;
53654;SDS011;39558;52.028;8.536;2024-01-30T11:12:27;3.15;;;1.95;;
53654;SDS011;39558;52.028;8.536;2024-01-30T11:15:09;3.47;;;1.70;;
53654;SDS011;39558;52.028;8.536;2024-01-30T11:17:39;4.00;;;1.75;;
53654;SDS011;39558;52.028;8.536;2024-01-30T11:20:09;5.88;;;2.10;;
53654;SDS011;39558;52.028;8.536;2024-01-30T11:22:35;3.53;;;1.67;;
53654;SDS011;39558;52.028;8.536;2024-01-30T11:25:01;4.72;;;2.20;;
53654;SDS011;39558;52.028;8.536;2024-01-30T11:27:28;6.30;;;2.53;;
53654;SDS011;39558;52.028;8.536;2024-01-30T11:29:54;3.42;;;1.63;;
53654;SDS011;39558;52.028;8.536;2024-01-30T11:32:26;3.65;;;1.65;;
53654;SDS011;39558;52.028;8.536;2024-01-30T11:34:52;3.92;;;1.77;;
53654;SDS011;39558;52.028;8.536;2024-01-30T11:37:19;4.15;;;1.98;;
53654;SDS011;39558;52.028;8.536;2024-01-30T11:39:45;4.60;;;2.17;;
53654;SDS011;39558;52.028;8.536;2024-01-30T11:42:11;3.67;;;1.70;;
53654;SDS011;39558;52.028;8.536;2024-01-30T11:44:38;5.03;;;2.10;;
53654;SDS011;39558;52.028;8.536;2024-01-30T11:47:03;3.55;;;1.63;;
53654;SDS011;39558;52.028;8.536;2024-01-30T11:49:29;5.18;;;1.73;;
53654;SDS011;39558;52.028;8.536;2024-01-30T11:51:56;3.10;;;1.73;;
53654;SDS011;39558;52.028;8.536;2024-01-30T11:54:22;3.72;;;1.50;;
53654;SDS011;39558;52.028;8.536;2024-01-30T11:56:48;3.00;;;1.35;;
53654;SDS011;39558;52.028;8.536;2024-01-30T11:59:13;3.58;;;1.63;;
53654;SDS011;39558;52.028;8.536;2024-01-30T12:01:39;4.13;;;2.17;;
53654;SDS011;39558;52.028;8.536;2024-01-30T12:04:05;6.07;;;2.15;;
53654;SDS011;39558;52.028;8.536;2024-01-30T12:06:34;4.22;;;2.03;;
53654;SDS011;39558;52.028;8.536;2024-01-30T12:09:01;5.30;;;2.20;;
53654;SDS011;39558;52.028;8.536;2024-01-30T12:11:29;3.28;;;1.77;;
53654;SDS011;39558;52.028;8.536;2024-01-30T12:13:55;4.05;;;1.63;;
53654;SDS011;39558;52.028;8.536;2024-01-30T12:16:21;7.22;;;2.22;;
53654;SDS011;39558;52.028;8.536;2024-01-30T12:18:47;4.55;;;2.20;;
53654;SDS011;39558;52.028;8.536;2024-01-30T12:21:17;4.00;;;1.70;;
53654;SDS011;39558;52.028;8.536;2024-01-30T12:23:43;4.00;;;1.70;;
53654;SDS011;39558;52.028;8.536;2024-01-30T12:26:15;2.92;;;1.55;;
53654;SDS011;39558;52.028;8.536;2024-01-30T12:28:47;4.15;;;1.70;;
53654;SDS011;39558;52.028;8.536;2024-01-30T12:31:14;3.70;;;1.70;;
53654;SDS011;39558;52.028;8.536;2024-01-30T12:33:40;3.97;;;2.10;;
53654;SDS011;39558;52.028;8.536;2024-01-30T12:36:06;3.92;;;1.67;;
53654;SDS011;39558;52.028;8.536;2024-01-30T12:38:32;3.95;;;1.80;;
53654;SDS011;39558;52.028;8.536;2024-01-30T12:40:58;3.42;;;1.60;;
53654;SDS011;39558;52.028;8.536;2024-01-30T12:43:23;3.70;;;1.95;;
53654;SDS011;39558;52.028;8.536;2024-01-30T12:45:50;3.65;;;1.73;;
53654;SDS011;39558;52.028;8.536;2024-01-30T12:48:17;3.67;;;1.98;;
53654;SDS011;39558;52.028;8.536;2024-01-30T12:50:43;3.60;;;1.90;;
53654;SDS011;39558;52.028;8.536;2024-01-30T12:53:09;2.92;;;1.45;;
53654;SDS011;39558;52.028;8.536;2024-01-30T12:55:37;3.92;;;1.80;;
53654;SDS011;39558;52.028;8.536;2024-01-30T12:58:03;4.20;;;1.73;;
53654;SDS011;39558;52.028;8.536;2024-01-30T13:00:29;3.88;;;1.85;;
53654;SDS011;39558;52.028;8.536;2024-01-30T13:02:55;5.25;;;1.67;;
53654;SDS011;39558;52.028;8.536;2024-01-30T13:05:21;2.63;;;1.50;;
53654;SDS011;39558;52.028;8.536;2024-01-30T13:07:47;3.80;;;1.65;;
53654;SDS011;39558;52.028;8.536;2024-01-30T13:13:16;3.60;;;1.85;;
53654;SDS011;39558;52.028;8.536;2024-01-30T13:15:42;3.65;;;1.85;;
53654;SDS011;39558;52.028;8.536;2024-01-30T13:18:08;4.78;;;2.00;;
53654;SDS011;39558;52.028;8.536;2024-01-30T13:20:35;3.80;;;2.17;;
53654;SDS011;39558;52.028;8.536;2024-01-30T13:23:01;6.05;;;2.35;;
53654;SDS011;39558;52.028;8.536;2024-01-30T13:25:26;4.68;;;2.22;;
53654;SDS011;39558;52.028;8.536;2024-01-30T13:27:52;4.18;;;1.90;;
53654;SDS011;39558;52.028;8.536;2024-01-30T13:30:18;3.42;;;1.58;;
53654;SDS011;39558;52.028;8.536;2024-01-30T13:32:44;3.28;;;1.67;;
53654;SDS011;39558;52.028;8.536;2024-01-30T13:35:11;5.15;;;2.00;;
53654;SDS011;39558;52.028;8.536;2024-01-30T13:37:37;3.00;;;1.50;;
53654;SDS011;39558;52.028;8.536;2024-01-30T13:40:04;3.50;;;1.77;;
53654;SDS011;39558;52.028;8.536;2024-01-30T13:42:32;3.75;;;2.00;;
53654;SDS011;39558;52.028;8.536;2024-01-30T13:44:58;4.90;;;1.67;;
53654;SDS011;39558;52.028;8.536;2024-01-30T13:47:23;4.13;;;1.85;;
53654;SDS011;39558;52.028;8.536;2024-01-30T13:49:50;3.97;;;2.13;;
53654;SDS011;39558;52.028;8.536;2024-01-30T13:52:17;4.53;;;2.00;;
53654;SDS011;39558;52.028;8.536;2024-01-30T13:54:43;4.82;;;1.60;;
53654;SDS011;39558;52.028;8.536;2024-01-30T13:57:09;3.90;;;2.17;;
53654;SDS011;39558;52.028;8.536;2024-01-30T13:59:39;3.75;;;1.63;;
53654;SDS011;39558;52.028;8.536;2024-01-30T14:02:05;4.78;;;2.03;;
53654;SDS011;39558;52.028;8.536;2024-01-30T14:04:33;4.40;;;2.03;;
53654;SDS011;39558;52.028;8.536;2024-01-30T14:06:59;3.45;;;1.95;;
53654;SDS011;39558;52.028;8.536;2024-01-30T14:09:25;5.00;;;2.25;;
53654;SDS011;39558;52.028;8.536;2024-01-30T14:11:51;4.93;;;2.17;;
53654;SDS011;39558;52.028;8.536;2024-01-30T14:14:16;3.80;;;1.80;;
53654;SDS011;39558;52.028;8.536;2024-01-30T14:16:43;4.55;;;1.88;;
53654;SDS011;39558;52.028;8.536;2024-01-30T14:19:09;3.75;;;2.13;;
53654;SDS011;39558;52.028;8.536;2024-01-30T14:21:35;5.18;;;2.15;;
53654;SDS011;39558;52.028;8.536;2024-01-30T14:24:02;3.75;;;1.90;;
53654;SDS011;39558;52.028;8.536;2024-01-30T14:26:28;6.53;;;1.85;;
53654;SDS011;39558;52.028;8.536;2024-01-30T14:28:54;4.03;;;1.67;;
53654;SDS011;39558;52.028;8.536;2024-01-30T14:31:20;5.32;;;2.00;;
53654;SDS011;39558;52.028;8.536;2024-01-30T14:33:47;5.47;;;2.08;;
53654;SDS011;39558;52.028;8.536;2024-01-30T14:36:13;8.45;;;2.38;;
53654;SDS011;39558;52.028;8.536;2024-01-30T14:38:39;7.25;;;1.85;;
53654;SDS011;39558;52.028;8.536;2024-01-30T14:47:15;3.67;;;1.80;;
53654;SDS011;39558;52.028;8.536;2024-01-30T14:49:41;9.35;;;4.35;;
53654;SDS011;39558;52.028;8.536;2024-01-30T14:52:06;9.18;;;4.45;;